Greenville Downtown Airport
KGMU : now visible

Airfield :











YOU CAN JOIN US ON...

 
LOGIN :

Register | Disclaimer

   EN    FR    IT 

 









Legend :    VFR   Marginal VFR   IFR   Intensive IFR   Very Intensive IFR
Visi :
Ceiling :
>= 8 km
>= 3000ft
5 to 8 km
1000 to 3000 ft
1500m to 5 km
500 to 1000 ft
800 to 1500m
200 to 500 ft
< 800m
< 200 ft
Symbols :   Thunderstorms  Fog  Heavy snow  Heavy precipitations  Wind > 20 kt






- Airport Elevation : 1048 ft


KGMU - Greenville Downtown

CURRENT METAR :
  • 091853Z 23003KT 3/4SM BR OVC002 07/06 A3000 RMK AO2 SLP160 T00670061

EXPIRED METARs :
  • 091837Z 00000KT 3/4SM BR OVC002 07/06 A3001 RMK AO2 T00670061
  • 091753Z 00000KT 1SM BR OVC003 06/06 A3003 RMK AO2 SLP172 60003 T00610056 10061 20044 58028
  • 091653Z 00000KT 1 1/2SM BR BKN003 OVC009 06/05 A3008 RMK AO2 RAB01E08 SLP187 P0000 T00560050
  • 091640Z 00000KT 1 3/4SM BR OVC009 06/05 A3009 RMK AO2 RAB01E08 CIG 003V010 P0000 T00560050
  • 091628Z 00000KT 2 1/2SM BR OVC009 06/05 A3010 RMK AO2 RAB01E08 P0000 T00560050

TAF KGMU
Valid from the 09 at 18:00 until the 10 at 18:00 UTC


091732Z 0918/1018 18003KT 4SM BR SCT003 OVC008
TEMPO 0918/0922 1SM -DZ BR OVC003
FM100200 23006KT 3SM -DZ BR OVC003 WS020/22035KT
PROB30 1006/1012 1SM -RADZ BR OVC002
FM101200 21007KT 2SM -RADZ BR OVC003 WS020/22040KT
FM101500 22008KT 3SM -SHRA BR OVC003



MET'MAP, your aeronautical weather chart ! - Copyright ORBIFLY December 2007 - Disclaimer

ORBIFLY MET'MAP TEAM :

Programming & Development : Alexandra Zaïnal
Concept & original design : Baudouin d'Aumeries
Assistance for programming : Marc-Olivier Méhu
Technical & hardware support : Manuel Goepfert

Contact : metmap@orbifly.com




SOURCES & CREDITS :

   NOAA       Earth
Advisory